sensor_id;sensor_type;location;lat;lon;timestamp;P1;durP1;ratioP1;P2;durP2;ratioP2
63114;SDS011;49208;50.874;6.466;2024-01-30T07:02:09;11.07;;;7.30;;
63114;SDS011;49208;50.874;6.466;2024-01-30T07:04:35;13.82;;;6.60;;
63114;SDS011;49208;50.874;6.466;2024-01-30T07:07:02;11.30;;;6.35;;
63114;SDS011;49208;50.874;6.466;2024-01-30T07:09:28;12.75;;;6.68;;
63114;SDS011;49208;50.874;6.466;2024-01-30T07:11:54;9.18;;;6.20;;
63114;SDS011;49208;50.874;6.466;2024-01-30T07:14:20;11.23;;;6.95;;
63114;SDS011;49208;50.874;6.466;2024-01-30T07:16:45;12.18;;;7.03;;
63114;SDS011;49208;50.874;6.466;2024-01-30T07:19:11;14.38;;;7.45;;
63114;SDS011;49208;50.874;6.466;2024-01-30T07:21:36;13.80;;;7.05;;
63114;SDS011;49208;50.874;6.466;2024-01-30T07:24:02;12.35;;;6.70;;
63114;SDS011;49208;50.874;6.466;2024-01-30T07:26:27;12.52;;;5.72;;
63114;SDS011;49208;50.874;6.466;2024-01-30T07:28:52;11.07;;;6.40;;
63114;SDS011;49208;50.874;6.466;2024-01-30T07:31:18;11.35;;;6.40;;
63114;SDS011;49208;50.874;6.466;2024-01-30T07:36:11;9.15;;;5.53;;
63114;SDS011;49208;50.874;6.466;2024-01-30T07:38:36;10.57;;;5.82;;
63114;SDS011;49208;50.874;6.466;2024-01-30T07:41:01;11.65;;;6.03;;
63114;SDS011;49208;50.874;6.466;2024-01-30T07:43:27;10.90;;;6.07;;
63114;SDS011;49208;50.874;6.466;2024-01-30T07:45:52;10.98;;;6.60;;
63114;SDS011;49208;50.874;6.466;2024-01-30T07:48:17;14.90;;;6.78;;
63114;SDS011;49208;50.874;6.466;2024-01-30T07:50:43;13.68;;;6.88;;
63114;SDS011;49208;50.874;6.466;2024-01-30T07:53:08;12.48;;;6.57;;
63114;SDS011;49208;50.874;6.466;2024-01-30T07:55:33;11.55;;;6.05;;
63114;SDS011;49208;50.874;6.466;2024-01-30T07:57:59;11.88;;;6.65;;
63114;SDS011;49208;50.874;6.466;2024-01-30T08:00:25;12.52;;;6.95;;
63114;SDS011;49208;50.874;6.466;2024-01-30T08:02:51;12.73;;;6.93;;
63114;SDS011;49208;50.874;6.466;2024-01-30T08:05:19;13.88;;;6.47;;
63114;SDS011;49208;50.874;6.466;2024-01-30T08:07:47;15.50;;;7.43;;
63114;SDS011;49208;50.874;6.466;2024-01-30T08:10:12;13.00;;;7.65;;
63114;SDS011;49208;50.874;6.466;2024-01-30T08:12:40;15.27;;;7.15;;
63114;SDS011;49208;50.874;6.466;2024-01-30T08:15:06;13.40;;;6.40;;
63114;SDS011;49208;50.874;6.466;2024-01-30T08:17:32;14.07;;;6.80;;
63114;SDS011;49208;50.874;6.466;2024-01-30T08:19:58;15.90;;;7.00;;
63114;SDS011;49208;50.874;6.466;2024-01-30T08:22:23;17.48;;;7.03;;
63114;SDS011;49208;50.874;6.466;2024-01-30T08:24:48;12.00;;;6.85;;
63114;SDS011;49208;50.874;6.466;2024-01-30T08:27:14;13.73;;;6.70;;
63114;SDS011;49208;50.874;6.466;2024-01-30T08:29:39;14.10;;;7.85;;
63114;SDS011;49208;50.874;6.466;2024-01-30T08:32:05;16.55;;;6.82;;
63114;SDS011;49208;50.874;6.466;2024-01-30T08:34:31;15.25;;;7.78;;
63114;SDS011;49208;50.874;6.466;2024-01-30T08:36:56;12.73;;;7.95;;
63114;SDS011;49208;50.874;6.466;2024-01-30T08:39:22;14.32;;;6.45;;
63114;SDS011;49208;50.874;6.466;2024-01-30T08:41:47;12.68;;;7.13;;
63114;SDS011;49208;50.874;6.466;2024-01-30T08:44:13;12.20;;;6.93;;
63114;SDS011;49208;50.874;6.466;2024-01-30T08:46:38;14.63;;;7.13;;
63114;SDS011;49208;50.874;6.466;2024-01-30T08:49:03;12.73;;;5.95;;
63114;SDS011;49208;50.874;6.466;2024-01-30T08:51:30;13.05;;;7.32;;
63114;SDS011;49208;50.874;6.466;2024-01-30T08:53:56;13.98;;;6.57;;
63114;SDS011;49208;50.874;6.466;2024-01-30T08:56:21;13.73;;;7.38;;
63114;SDS011;49208;50.874;6.466;2024-01-30T08:58:46;11.57;;;6.75;;
63114;SDS011;49208;50.874;6.466;2024-01-30T09:01:12;15.23;;;7.22;;
63114;SDS011;49208;50.874;6.466;2024-01-30T09:03:37;15.38;;;7.50;;
63114;SDS011;49208;50.874;6.466;2024-01-30T09:06:11;18.92;;;8.63;;
63114;SDS011;49208;50.874;6.466;2024-01-30T09:08:36;13.95;;;8.02;;
63114;SDS011;49208;50.874;6.466;2024-01-30T09:11:11;14.13;;;6.88;;
63114;SDS011;49208;50.874;6.466;2024-01-30T09:13:38;11.90;;;6.97;;
63114;SDS011;49208;50.874;6.466;2024-01-30T09:16:03;15.18;;;7.82;;
63114;SDS011;49208;50.874;6.466;2024-01-30T09:18:29;15.00;;;7.95;;
63114;SDS011;49208;50.874;6.466;2024-01-30T09:20:54;17.13;;;8.70;;
63114;SDS011;49208;50.874;6.466;2024-01-30T09:23:20;14.88;;;7.95;;
63114;SDS011;49208;50.874;6.466;2024-01-30T09:25:45;15.20;;;8.40;;
63114;SDS011;49208;50.874;6.466;2024-01-30T09:28:11;14.32;;;8.23;;
63114;SDS011;49208;50.874;6.466;2024-01-30T09:30:36;18.20;;;8.32;;
63114;SDS011;49208;50.874;6.466;2024-01-30T09:33:02;14.30;;;7.80;;
63114;SDS011;49208;50.874;6.466;2024-01-30T09:35:27;17.67;;;8.10;;
63114;SDS011;49208;50.874;6.466;2024-01-30T09:37:53;16.05;;;8.10;;
63114;SDS011;49208;50.874;6.466;2024-01-30T09:40:18;12.20;;;7.80;;
63114;SDS011;49208;50.874;6.466;2024-01-30T09:42:46;13.73;;;7.75;;
63114;SDS011;49208;50.874;6.466;2024-01-30T09:45:15;12.75;;;7.45;;
63114;SDS011;49208;50.874;6.466;2024-01-30T09:47:42;14.45;;;7.00;;
63114;SDS011;49208;50.874;6.466;2024-01-30T09:50:09;11.82;;;6.40;;
63114;SDS011;49208;50.874;6.466;2024-01-30T09:52:39;13.20;;;6.25;;
63114;SDS011;49208;50.874;6.466;2024-01-30T09:55:05;11.60;;;5.85;;
63114;SDS011;49208;50.874;6.466;2024-01-30T09:57:31;11.05;;;5.93;;
63114;SDS011;49208;50.874;6.466;2024-01-30T09:59:57;11.18;;;6.50;;
63114;SDS011;49208;50.874;6.466;2024-01-30T10:02:22;13.63;;;7.00;;
63114;SDS011;49208;50.874;6.466;2024-01-30T10:04:48;10.63;;;6.28;;
63114;SDS011;49208;50.874;6.466;2024-01-30T10:07:17;11.48;;;6.28;;
63114;SDS011;49208;50.874;6.466;2024-01-30T10:09:43;11.00;;;6.22;;
63114;SDS011;49208;50.874;6.466;2024-01-30T10:12:09;10.57;;;6.43;;
63114;SDS011;49208;50.874;6.466;2024-01-30T10:14:38;12.55;;;7.03;;
63114;SDS011;49208;50.874;6.466;2024-01-30T10:17:04;14.02;;;7.60;;
63114;SDS011;49208;50.874;6.466;2024-01-30T10:19:31;14.60;;;8.02;;
63114;SDS011;49208;50.874;6.466;2024-01-30T10:21:56;13.23;;;7.00;;
63114;SDS011;49208;50.874;6.466;2024-01-30T10:24:25;13.93;;;6.55;;
63114;SDS011;49208;50.874;6.466;2024-01-30T10:26:51;14.27;;;6.13;;
63114;SDS011;49208;50.874;6.466;2024-01-30T10:29:16;9.18;;;5.55;;
63114;SDS011;49208;50.874;6.466;2024-01-30T10:31:42;13.32;;;5.97;;
63114;SDS011;49208;50.874;6.466;2024-01-30T10:34:07;14.10;;;5.95;;
63114;SDS011;49208;50.874;6.466;2024-01-30T10:36:33;11.45;;;5.35;;
63114;SDS011;49208;50.874;6.466;2024-01-30T10:39:04;12.27;;;5.03;;
63114;SDS011;49208;50.874;6.466;2024-01-30T10:41:31;11.35;;;5.50;;
63114;SDS011;49208;50.874;6.466;2024-01-30T10:44:09;11.38;;;5.70;;
63114;SDS011;49208;50.874;6.466;2024-01-30T10:46:36;10.40;;;5.38;;
63114;SDS011;49208;50.874;6.466;2024-01-30T10:49:03;10.57;;;5.05;;
63114;SDS011;49208;50.874;6.466;2024-01-30T10:51:29;13.00;;;4.82;;
63114;SDS011;49208;50.874;6.466;2024-01-30T10:53:56;11.80;;;5.50;;
63114;SDS011;49208;50.874;6.466;2024-01-30T10:56:22;9.77;;;4.80;;
63114;SDS011;49208;50.874;6.466;2024-01-30T10:58:52;15.13;;;5.80;;
63114;SDS011;49208;50.874;6.466;2024-01-30T11:01:19;15.13;;;5.43;;
63114;SDS011;49208;50.874;6.466;2024-01-30T11:03:47;10.15;;;4.82;;
63114;SDS011;49208;50.874;6.466;2024-01-30T11:06:18;16.60;;;5.78;;
63114;SDS011;49208;50.874;6.466;2024-01-30T11:08:59;11.68;;;5.90;;
63114;SDS011;49208;50.874;6.466;2024-01-30T11:11:29;14.35;;;6.00;;
63114;SDS011;49208;50.874;6.466;2024-01-30T11:13:54;12.40;;;5.90;;
63114;SDS011;49208;50.874;6.466;2024-01-30T11:16:20;9.65;;;5.63;;
63114;SDS011;49208;50.874;6.466;2024-01-30T11:18:49;13.57;;;5.32;;
63114;SDS011;49208;50.874;6.466;2024-01-30T11:21:17;10.13;;;5.60;;
63114;SDS011;49208;50.874;6.466;2024-01-30T11:23:42;13.85;;;5.57;;
63114;SDS011;49208;50.874;6.466;2024-01-30T11:26:10;11.23;;;5.88;;
63114;SDS011;49208;50.874;6.466;2024-01-30T11:28:35;18.38;;;7.47;;
63114;SDS011;49208;50.874;6.466;2024-01-30T11:31:04;12.25;;;5.75;;
63114;SDS011;49208;50.874;6.466;2024-01-30T11:33:30;10.68;;;5.72;;
63114;SDS011;49208;50.874;6.466;2024-01-30T11:35:57;13.48;;;5.75;;
63114;SDS011;49208;50.874;6.466;2024-01-30T11:38:25;11.60;;;5.78;;
63114;SDS011;49208;50.874;6.466;2024-01-30T11:40:52;13.18;;;6.82;;
63114;SDS011;49208;50.874;6.466;2024-01-30T11:43:18;16.02;;;6.32;;
63114;SDS011;49208;50.874;6.466;2024-01-30T11:45:44;14.13;;;5.20;;
63114;SDS011;49208;50.874;6.466;2024-01-30T11:48:11;13.50;;;6.78;;
63114;SDS011;49208;50.874;6.466;2024-01-30T11:50:37;12.15;;;5.20;;
63114;SDS011;49208;50.874;6.466;2024-01-30T11:53:04;11.75;;;6.05;;
63114;SDS011;49208;50.874;6.466;2024-01-30T11:55:29;15.00;;;5.47;;
63114;SDS011;49208;50.874;6.466;2024-01-30T11:57:56;11.77;;;5.30;;
63114;SDS011;49208;50.874;6.466;2024-01-30T12:00:22;12.98;;;5.75;;
63114;SDS011;49208;50.874;6.466;2024-01-30T12:02:54;11.50;;;5.22;;
63114;SDS011;49208;50.874;6.466;2024-01-30T12:07:50;9.27;;;4.53;;
63114;SDS011;49208;50.874;6.466;2024-01-30T12:10:16;10.75;;;4.65;;
63114;SDS011;49208;50.874;6.466;2024-01-30T12:12:44;12.55;;;6.15;;
63114;SDS011;49208;50.874;6.466;2024-01-30T12:15:14;9.63;;;4.97;;
63114;SDS011;49208;50.874;6.466;2024-01-30T12:17:40;11.20;;;5.43;;
63114;SDS011;49208;50.874;6.466;2024-01-30T12:22:36;8.63;;;5.00;;
63114;SDS011;49208;50.874;6.466;2024-01-30T12:25:10;12.73;;;4.85;;
63114;SDS011;49208;50.874;6.466;2024-01-30T12:27:39;9.52;;;5.07;;
63114;SDS011;49208;50.874;6.466;2024-01-30T12:30:11;11.20;;;4.72;;
63114;SDS011;49208;50.874;6.466;2024-01-30T12:32:41;16.45;;;5.57;;
63114;SDS011;49208;50.874;6.466;2024-01-30T12:35:11;9.10;;;5.78;;
63114;SDS011;49208;50.874;6.466;2024-01-30T12:37:38;11.05;;;5.20;;
63114;SDS011;49208;50.874;6.466;2024-01-30T12:40:04;10.05;;;5.13;;
63114;SDS011;49208;50.874;6.466;2024-01-30T12:42:31;9.90;;;4.82;;
63114;SDS011;49208;50.874;6.466;2024-01-30T12:44:57;13.02;;;4.97;;
63114;SDS011;49208;50.874;6.466;2024-01-30T12:47:26;10.77;;;4.85;;
63114;SDS011;49208;50.874;6.466;2024-01-30T12:49:51;7.90;;;4.65;;
63114;SDS011;49208;50.874;6.466;2024-01-30T12:52:19;8.05;;;4.53;;
63114;SDS011;49208;50.874;6.466;2024-01-30T12:54:45;8.52;;;5.07;;
63114;SDS011;49208;50.874;6.466;2024-01-30T12:57:11;14.63;;;6.28;;
63114;SDS011;49208;50.874;6.466;2024-01-30T12:59:36;12.48;;;5.55;;
63114;SDS011;49208;50.874;6.466;2024-01-30T13:02:01;9.38;;;5.25;;
63114;SDS011;49208;50.874;6.466;2024-01-30T13:04:28;10.18;;;5.95;;
63114;SDS011;49208;50.874;6.466;2024-01-30T13:06:54;11.38;;;6.55;;
63114;SDS011;49208;50.874;6.466;2024-01-30T13:09:19;12.77;;;5.93;;
63114;SDS011;49208;50.874;6.466;2024-01-30T13:11:45;11.18;;;5.53;;
63114;SDS011;49208;50.874;6.466;2024-01-30T13:14:11;11.35;;;6.32;;
63114;SDS011;49208;50.874;6.466;2024-01-30T13:16:36;10.02;;;5.78;;
63114;SDS011;49208;50.874;6.466;2024-01-30T13:19:02;9.38;;;4.97;;
63114;SDS011;49208;50.874;6.466;2024-01-30T13:21:28;10.40;;;6.10;;
63114;SDS011;49208;50.874;6.466;2024-01-30T13:23:55;13.95;;;5.95;;
63114;SDS011;49208;50.874;6.466;2024-01-30T13:26:21;11.77;;;6.38;;
63114;SDS011;49208;50.874;6.466;2024-01-30T13:28:47;10.23;;;5.53;;
63114;SDS011;49208;50.874;6.466;2024-01-30T13:31:13;12.48;;;5.70;;
63114;SDS011;49208;50.874;6.466;2024-01-30T13:33:39;14.60;;;5.60;;
63114;SDS011;49208;50.874;6.466;2024-01-30T13:36:05;10.95;;;5.50;;
63114;SDS011;49208;50.874;6.466;2024-01-30T13:38:31;13.27;;;6.53;;
63114;SDS011;49208;50.874;6.466;2024-01-30T13:40:57;10.80;;;5.53;;
63114;SDS011;49208;50.874;6.466;2024-01-30T13:43:22;17.98;;;6.15;;
63114;SDS011;49208;50.874;6.466;2024-01-30T13:45:47;13.02;;;5.95;;
63114;SDS011;49208;50.874;6.466;2024-01-30T13:48:13;11.45;;;6.03;;
63114;SDS011;49208;50.874;6.466;2024-01-30T13:50:38;14.20;;;6.03;;
63114;SDS011;49208;50.874;6.466;2024-01-30T13:53:03;12.63;;;5.72;;
63114;SDS011;49208;50.874;6.466;2024-01-30T13:55:29;12.55;;;6.38;;
63114;SDS011;49208;50.874;6.466;2024-01-30T13:57:55;13.77;;;6.47;;
63114;SDS011;49208;50.874;6.466;2024-01-30T14:00:21;14.65;;;6.78;;
63114;SDS011;49208;50.874;6.466;2024-01-30T14:02:47;12.15;;;6.13;;
63114;SDS011;49208;50.874;6.466;2024-01-30T14:05:13;12.10;;;6.68;;
63114;SDS011;49208;50.874;6.466;2024-01-30T14:07:39;11.85;;;6.25;;
63114;SDS011;49208;50.874;6.466;2024-01-30T14:10:05;13.00;;;8.15;;
63114;SDS011;49208;50.874;6.466;2024-01-30T14:12:31;11.05;;;6.32;;
63114;SDS011;49208;50.874;6.466;2024-01-30T14:14:58;17.83;;;7.00;;
63114;SDS011;49208;50.874;6.466;2024-01-30T14:17:23;19.70;;;6.88;;
63114;SDS011;49208;50.874;6.466;2024-01-30T14:19:48;13.82;;;6.90;;
63114;SDS011;49208;50.874;6.466;2024-01-30T14:22:14;13.43;;;6.07;;
63114;SDS011;49208;50.874;6.466;2024-01-30T14:24:39;10.52;;;6.28;;
63114;SDS011;49208;50.874;6.466;2024-01-30T14:27:05;11.88;;;6.22;;
63114;SDS011;49208;50.874;6.466;2024-01-30T14:29:30;14.30;;;6.20;;
63114;SDS011;49208;50.874;6.466;2024-01-30T14:31:55;15.27;;;7.18;;
63114;SDS011;49208;50.874;6.466;2024-01-30T14:34:23;10.90;;;6.45;;
63114;SDS011;49208;50.874;6.466;2024-01-30T14:36:48;14.87;;;6.00;;
63114;SDS011;49208;50.874;6.466;2024-01-30T14:39:14;15.82;;;6.95;;
63114;SDS011;49208;50.874;6.466;2024-01-30T14:41:39;13.27;;;7.95;;
63114;SDS011;49208;50.874;6.466;2024-01-30T14:44:05;11.30;;;6.68;;
63114;SDS011;49208;50.874;6.466;2024-01-30T14:46:30;14.00;;;7.10;;
63114;SDS011;49208;50.874;6.466;2024-01-30T14:48:56;18.08;;;6.55;;
63114;SDS011;49208;50.874;6.466;2024-01-30T14:51:22;9.57;;;6.15;;
63114;SDS011;49208;50.874;6.466;2024-01-30T14:53:48;13.13;;;6.30;;
63114;SDS011;49208;50.874;6.466;2024-01-30T14:56:13;16.40;;;7.40;;
63114;SDS011;49208;50.874;6.466;2024-01-30T14:58:39;12.30;;;7.38;;
63114;SDS011;49208;50.874;6.466;2024-01-30T15:01:04;13.43;;;6.75;;
63114;SDS011;49208;50.874;6.466;2024-01-30T15:03:30;12.90;;;7.03;;
63114;SDS011;49208;50.874;6.466;2024-01-30T15:05:55;13.80;;;7.05;;
63114;SDS011;49208;50.874;6.466;2024-01-30T15:08:21;14.95;;;7.80;;
63114;SDS011;49208;50.874;6.466;2024-01-30T15:10:47;16.23;;;7.57;;
63114;SDS011;49208;50.874;6.466;2024-01-30T15:13:12;14.95;;;8.25;;
63114;SDS011;49208;50.874;6.466;2024-01-30T15:15:37;15.30;;;7.95;;
63114;SDS011;49208;50.874;6.466;2024-01-30T15:18:03;14.70;;;8.48;;
63114;SDS011;49208;50.874;6.466;2024-01-30T15:20:29;14.95;;;7.82;;
63114;SDS011;49208;50.874;6.466;2024-01-30T15:22:56;15.98;;;7.90;;
63114;SDS011;49208;50.874;6.466;2024-01-30T15:25:21;13.48;;;7.43;;
63114;SDS011;49208;50.874;6.466;2024-01-30T15:27:47;16.67;;;6.88;;
63114;SDS011;49208;50.874;6.466;2024-01-30T15:30:12;13.60;;;7.00;;
63114;SDS011;49208;50.874;6.466;2024-01-30T15:32:38;14.20;;;6.80;;
63114;SDS011;49208;50.874;6.466;2024-01-30T15:35:04;11.68;;;6.85;;
63114;SDS011;49208;50.874;6.466;2024-01-30T15:37:30;11.93;;;5.90;;
63114;SDS011;49208;50.874;6.466;2024-01-30T15:39:57;15.13;;;6.30;;
63114;SDS011;49208;50.874;6.466;2024-01-30T15:42:22;14.07;;;6.57;;
63114;SDS011;49208;50.874;6.466;2024-01-30T15:44:47;11.05;;;5.35;;
63114;SDS011;49208;50.874;6.466;2024-01-30T15:47:13;15.10;;;6.63;;
63114;SDS011;49208;50.874;6.466;2024-01-30T15:49:38;12.57;;;5.15;;
63114;SDS011;49208;50.874;6.466;2024-01-30T15:52:04;14.23;;;4.55;;
63114;SDS011;49208;50.874;6.466;2024-01-30T15:54:30;11.05;;;3.95;;
63114;SDS011;49208;50.874;6.466;2024-01-30T15:56:55;7.22;;;3.58;;
63114;SDS011;49208;50.874;6.466;2024-01-30T15:59:21;8.70;;;3.35;;
63114;SDS011;49208;50.874;6.466;2024-01-30T16:01:46;9.25;;;3.35;;
63114;SDS011;49208;50.874;6.466;2024-01-30T16:04:14;5.32;;;2.95;;
63114;SDS011;49208;50.874;6.466;2024-01-30T16:06:40;7.28;;;3.00;;
63114;SDS011;49208;50.874;6.466;2024-01-30T16:09:07;6.25;;;2.75;;
63114;SDS011;49208;50.874;6.466;2024-01-30T16:11:33;9.18;;;3.47;;
63114;SDS011;49208;50.874;6.466;2024-01-30T16:13:58;12.88;;;4.47;;
63114;SDS011;49208;50.874;6.466;2024-01-30T16:16:23;11.07;;;3.75;;
63114;SDS011;49208;50.874;6.466;2024-01-30T16:18:49;7.95;;;3.40;;
63114;SDS011;49208;50.874;6.466;2024-01-30T16:21:14;13.05;;;4.15;;
63114;SDS011;49208;50.874;6.466;2024-01-30T16:23:41;5.88;;;3.45;;
63114;SDS011;49208;50.874;6.466;2024-01-30T16:26:06;7.13;;;3.25;;
63114;SDS011;49208;50.874;6.466;2024-01-30T16:28:32;10.10;;;3.03;;
63114;SDS011;49208;50.874;6.466;2024-01-30T16:31:00;11.15;;;2.85;;
63114;SDS011;49208;50.874;6.466;2024-01-30T16:33:27;5.65;;;2.38;;
63114;SDS011;49208;50.874;6.466;2024-01-30T16:35:52;5.20;;;2.00;;
63114;SDS011;49208;50.874;6.466;2024-01-30T16:38:18;7.57;;;2.30;;
63114;SDS011;49208;50.874;6.466;2024-01-30T16:40:44;5.60;;;2.20;;
63114;SDS011;49208;50.874;6.466;2024-01-30T16:43:10;4.50;;;1.70;;
63114;SDS011;49208;50.874;6.466;2024-01-30T16:45:36;4.75;;;2.08;;
63114;SDS011;49208;50.874;6.466;2024-01-30T16:48:02;5.75;;;2.08;;
63114;SDS011;49208;50.874;6.466;2024-01-30T16:50:27;3.65;;;1.35;;
63114;SDS011;49208;50.874;6.466;2024-01-30T16:52:53;4.75;;;1.90;;
63114;SDS011;49208;50.874;6.466;2024-01-30T16:55:18;3.67;;;1.50;;
63114;SDS011;49208;50.874;6.466;2024-01-30T17:00:11;3.28;;;1.48;;
63114;SDS011;49208;50.874;6.466;2024-01-30T17:02:37;5.00;;;2.47;;
63114;SDS011;49208;50.874;6.466;2024-01-30T17:05:03;4.97;;;1.80;;
63114;SDS011;49208;50.874;6.466;2024-01-30T17:07:29;5.25;;;1.70;;
63114;SDS011;49208;50.874;6.466;2024-01-30T17:10:00;5.68;;;1.73;;
63114;SDS011;49208;50.874;6.466;2024-01-30T17:12:25;5.68;;;1.90;;
63114;SDS011;49208;50.874;6.466;2024-01-30T17:14:51;5.03;;;1.60;;
63114;SDS011;49208;50.874;6.466;2024-01-30T17:17:16;4.80;;;1.80;;
63114;SDS011;49208;50.874;6.466;2024-01-30T17:19:42;7.95;;;2.10;;
63114;SDS011;49208;50.874;6.466;2024-01-30T17:22:07;4.57;;;1.80;;
63114;SDS011;49208;50.874;6.466;2024-01-30T17:24:33;4.78;;;2.35;;
63114;SDS011;49208;50.874;6.466;2024-01-30T17:26:58;5.40;;;2.47;;
63114;SDS011;49208;50.874;6.466;2024-01-30T17:29:25;4.23;;;1.50;;
63114;SDS011;49208;50.874;6.466;2024-01-30T17:31:50;3.70;;;1.70;;
63114;SDS011;49208;50.874;6.466;2024-01-30T17:34:16;5.85;;;2.05;;
63114;SDS011;49208;50.874;6.466;2024-01-30T17:36:42;8.77;;;1.90;;
63114;SDS011;49208;50.874;6.466;2024-01-30T17:39:07;4.70;;;1.98;;
63114;SDS011;49208;50.874;6.466;2024-01-30T17:41:33;4.95;;;1.80;;
63114;SDS011;49208;50.874;6.466;2024-01-30T17:43:58;3.80;;;1.42;;
63114;SDS011;49208;50.874;6.466;2024-01-30T17:46:24;3.28;;;1.40;;
63114;SDS011;49208;50.874;6.466;2024-01-30T17:48:49;4.88;;;1.67;;
63114;SDS011;49208;50.874;6.466;2024-01-30T17:51:15;7.13;;;1.90;;
63114;SDS011;49208;50.874;6.466;2024-01-30T17:53:40;5.30;;;2.13;;
63114;SDS011;49208;50.874;6.466;2024-01-30T17:56:06;7.15;;;1.42;;
63114;SDS011;49208;50.874;6.466;2024-01-30T17:58:31;3.90;;;1.33;;
63114;SDS011;49208;50.874;6.466;2024-01-30T18:00:57;7.82;;;1.77;;
63114;SDS011;49208;50.874;6.466;2024-01-30T18:05:50;4.32;;;1.42;;
63114;SDS011;49208;50.874;6.466;2024-01-30T18:08:16;4.00;;;1.75;;
63114;SDS011;49208;50.874;6.466;2024-01-30T18:10:42;5.75;;;1.90;;
63114;SDS011;49208;50.874;6.466;2024-01-30T18:13:07;3.63;;;1.35;;
63114;SDS011;49208;50.874;6.466;2024-01-30T18:15:34;4.93;;;1.60;;
63114;SDS011;49208;50.874;6.466;2024-01-30T18:18:00;6.07;;;1.42;;
63114;SDS011;49208;50.874;6.466;2024-01-30T18:20:26;5.25;;;1.30;;
63114;SDS011;49208;50.874;6.466;2024-01-30T18:22:51;5.18;;;1.52;;
63114;SDS011;49208;50.874;6.466;2024-01-30T18:25:17;4.38;;;1.40;;
63114;SDS011;49208;50.874;6.466;2024-01-30T18:27:42;4.47;;;1.60;;
63114;SDS011;49208;50.874;6.466;2024-01-30T18:30:08;4.63;;;1.60;;
63114;SDS011;49208;50.874;6.466;2024-01-30T18:32:34;4.90;;;1.60;;
63114;SDS011;49208;50.874;6.466;2024-01-30T18:34:59;5.10;;;1.67;;
63114;SDS011;49208;50.874;6.466;2024-01-30T18:37:25;3.72;;;1.27;;
63114;SDS011;49208;50.874;6.466;2024-01-30T18:39:51;12.52;;;1.65;;
63114;SDS011;49208;50.874;6.466;2024-01-30T18:42:17;5.85;;;2.53;;
63114;SDS011;49208;50.874;6.466;2024-01-30T18:44:43;8.43;;;1.80;;
63114;SDS011;49208;50.874;6.466;2024-01-30T18:47:11;5.65;;;1.60;;
63114;SDS011;49208;50.874;6.466;2024-01-30T18:49:37;5.32;;;2.10;;
63114;SDS011;49208;50.874;6.466;2024-01-30T18:52:02;3.35;;;1.90;;
63114;SDS011;49208;50.874;6.466;2024-01-30T18:54:29;7.15;;;1.98;;
63114;SDS011;49208;50.874;6.466;2024-01-30T18:56:55;9.98;;;2.38;;
63114;SDS011;49208;50.874;6.466;2024-01-30T18:59:20;7.25;;;2.17;;
63114;SDS011;49208;50.874;6.466;2024-01-30T19:01:46;6.25;;;1.90;;
63114;SDS011;49208;50.874;6.466;2024-01-30T19:04:11;4.00;;;1.50;;
63114;SDS011;49208;50.874;6.466;2024-01-30T19:06:37;5.03;;;1.60;;
63114;SDS011;49208;50.874;6.466;2024-01-30T19:09:03;6.38;;;1.63;;
63114;SDS011;49208;50.874;6.466;2024-01-30T19:11:33;4.95;;;1.75;;
63114;SDS011;49208;50.874;6.466;2024-01-30T19:13:59;4.13;;;1.63;;
63114;SDS011;49208;50.874;6.466;2024-01-30T19:16:25;4.25;;;1.90;;
63114;SDS011;49208;50.874;6.466;2024-01-30T19:18:50;7.00;;;2.00;;
63114;SDS011;49208;50.874;6.466;2024-01-30T19:21:16;12.05;;;2.90;;
63114;SDS011;49208;50.874;6.466;2024-01-30T19:23:41;4.22;;;2.08;;
63114;SDS011;49208;50.874;6.466;2024-01-30T19:26:07;6.45;;;2.70;;
63114;SDS011;49208;50.874;6.466;2024-01-30T19:28:32;5.57;;;2.33;;
63114;SDS011;49208;50.874;6.466;2024-01-30T19:30:58;6.13;;;2.80;;
63114;SDS011;49208;50.874;6.466;2024-01-30T19:33:26;6.93;;;3.38;;
63114;SDS011;49208;50.874;6.466;2024-01-30T19:35:52;5.22;;;2.22;;
63114;SDS011;49208;50.874;6.466;2024-01-30T19:38:18;6.32;;;2.53;;
63114;SDS011;49208;50.874;6.466;2024-01-30T19:40:43;5.82;;;2.80;;
63114;SDS011;49208;50.874;6.466;2024-01-30T19:43:09;6.03;;;2.25;;
63114;SDS011;49208;50.874;6.466;2024-01-30T19:45:34;6.72;;;2.83;;
63114;SDS011;49208;50.874;6.466;2024-01-30T19:47:59;8.65;;;2.45;;
63114;SDS011;49208;50.874;6.466;2024-01-30T19:50:25;6.72;;;2.55;;
63114;SDS011;49208;50.874;6.466;2024-01-30T19:52:50;5.10;;;2.63;;
63114;SDS011;49208;50.874;6.466;2024-01-30T19:55:16;5.75;;;2.35;;
63114;SDS011;49208;50.874;6.466;2024-01-30T19:57:42;6.43;;;2.38;;
63114;SDS011;49208;50.874;6.466;2024-01-30T20:00:08;4.75;;;2.05;;
63114;SDS011;49208;50.874;6.466;2024-01-30T20:02:38;5.97;;;2.83;;
63114;SDS011;49208;50.874;6.466;2024-01-30T20:05:04;8.35;;;2.40;;
63114;SDS011;49208;50.874;6.466;2024-01-30T20:07:30;8.82;;;2.88;;
63114;SDS011;49208;50.874;6.466;2024-01-30T20:09:55;7.25;;;3.00;;
63114;SDS011;49208;50.874;6.466;2024-01-30T20:12:21;6.50;;;2.58;;
63114;SDS011;49208;50.874;6.466;2024-01-30T20:14:47;6.45;;;2.72;;
63114;SDS011;49208;50.874;6.466;2024-01-30T20:17:12;5.47;;;2.05;;
63114;SDS011;49208;50.874;6.466;2024-01-30T20:19:38;5.30;;;2.13;;
63114;SDS011;49208;50.874;6.466;2024-01-30T20:22:05;4.72;;;2.10;;
63114;SDS011;49208;50.874;6.466;2024-01-30T20:24:30;4.93;;;2.00;;
63114;SDS011;49208;50.874;6.466;2024-01-30T20:26:56;5.63;;;2.10;;
63114;SDS011;49208;50.874;6.466;2024-01-30T20:29:21;6.05;;;2.90;;
63114;SDS011;49208;50.874;6.466;2024-01-30T20:31:47;7.30;;;2.50;;
63114;SDS011;49208;50.874;6.466;2024-01-30T20:34:12;5.65;;;2.83;;
63114;SDS011;49208;50.874;6.466;2024-01-30T20:36:41;7.53;;;2.70;;
63114;SDS011;49208;50.874;6.466;2024-01-30T20:39:08;9.75;;;2.92;;
63114;SDS011;49208;50.874;6.466;2024-01-30T20:41:38;6.53;;;2.60;;
63114;SDS011;49208;50.874;6.466;2024-01-30T20:44:04;7.47;;;2.33;;
63114;SDS011;49208;50.874;6.466;2024-01-30T20:46:30;5.70;;;2.40;;
63114;SDS011;49208;50.874;6.466;2024-01-30T20:48:55;7.63;;;3.53;;
63114;SDS011;49208;50.874;6.466;2024-01-30T20:51:20;9.50;;;2.85;;
63114;SDS011;49208;50.874;6.466;2024-01-30T20:53:46;7.63;;;3.22;;
63114;SDS011;49208;50.874;6.466;2024-01-30T20:56:11;7.18;;;3.33;;
63114;SDS011;49208;50.874;6.466;2024-01-30T20:58:38;6.07;;;3.20;;
63114;SDS011;49208;50.874;6.466;2024-01-30T21:01:04;9.52;;;2.92;;
63114;SDS011;49208;50.874;6.466;2024-01-30T21:03:30;7.40;;;2.85;;
63114;SDS011;49208;50.874;6.466;2024-01-30T21:05:56;6.90;;;2.97;;
63114;SDS011;49208;50.874;6.466;2024-01-30T21:08:23;6.63;;;2.80;;
63114;SDS011;49208;50.874;6.466;2024-01-30T21:10:49;8.05;;;4.18;;
63114;SDS011;49208;50.874;6.466;2024-01-30T21:13:14;5.45;;;2.70;;
63114;SDS011;49208;50.874;6.466;2024-01-30T21:15:41;6.85;;;2.75;;
63114;SDS011;49208;50.874;6.466;2024-01-30T21:18:07;6.32;;;2.58;;
63114;SDS011;49208;50.874;6.466;2024-01-30T21:20:33;8.77;;;3.30;;
63114;SDS011;49208;50.874;6.466;2024-01-30T21:22:59;6.55;;;3.15;;
63114;SDS011;49208;50.874;6.466;2024-01-30T21:25:25;7.00;;;3.78;;
63114;SDS011;49208;50.874;6.466;2024-01-30T21:27:51;8.57;;;3.95;;
63114;SDS011;49208;50.874;6.466;2024-01-30T21:30:17;7.20;;;3.88;;
63114;SDS011;49208;50.874;6.466;2024-01-30T21:32:42;10.25;;;3.95;;
63114;SDS011;49208;50.874;6.466;2024-01-30T21:35:07;8.88;;;4.03;;
63114;SDS011;49208;50.874;6.466;2024-01-30T21:37:33;8.88;;;4.28;;
63114;SDS011;49208;50.874;6.466;2024-01-30T21:39:59;6.65;;;4.00;;
63114;SDS011;49208;50.874;6.466;2024-01-30T21:42:25;7.18;;;4.32;;
63114;SDS011;49208;50.874;6.466;2024-01-30T21:44:51;6.65;;;3.40;;
63114;SDS011;49208;50.874;6.466;2024-01-30T21:47:20;7.68;;;4.90;;